Terminal Aerodrome Forecast
Issued by NWS

Home | Current Version | Previous Version | Text Only | Print | Product List | Glossary On
Versions: 1 2 3 4 5 6 7 8 9 10 11 12 13 14 15 16 17
000
FTUS42 KMHX 261721
TAFPGV
TAF
KPGV 261721Z 2618/2718 22004KT P6SM SCT050
     FM270100 12007KT P6SM BKN080
     FM270900 17005KT 4SM -SHRA OVC030
     FM271300 20008KT P6SM BKN060
      AMD LTD TO CLD VIS AND WIND=

USA.gov is the U.S. government's official web portal to all federal, state and local government web resources and services.